Time,TemperatureF,DewpointF,PressureIn,WindDirection,WindDirectionDegrees,WindSpeedMPH,WindSpeedGustMPH,Humidity,HourlyPrecipIn,Conditions,Clouds,dailyrainin,SoftwareType,DateUTC
2013-03-09 00:00:00,33.4,29.1,30.05,NNE,31,2.3,2.3,84,0.00,OVC,OVC,0.00,WeatherDisplay:10.37,2013-03-09 05:00:00,
2013-03-09 00:01:00,33.4,29.4,30.05,NNE,31,1.2,1.2,85,0.00,OVC,OVC,0.00,WeatherDisplay:10.37,2013-03-09 05:01:00,
2013-03-09 00:04:00,33.3,29.3,30.05,NNE,31,1.2,1.2,85,0.00,OVC,OVC,0.00,WeatherDisplay:10.37,2013-03-09 05:04:00,
2013-03-09 00:10:00,33.2,29.8,30.05,NNE,31,0.0,0.0,87,0.00,OVC,OVC,0.00,WeatherDisplay:10.37,2013-03-09 05:10:00,
2013-03-09 00:12:00,33.1,29.9,30.06,NE,34,3.5,3.5,88,0.00,OVC,OVC,0.00,WeatherDisplay:10.37,2013-03-09 05:12:00,
2013-03-09 00:17:00,32.9,28.9,30.06,NNE,24,1.0,1.0,85,0.00,OVC,OVC,0.00,WeatherDisplay:10.37,2013-03-09 05:17:00,
2013-03-09 00:22:00,33.0,29.6,30.06,NNE,24,1.2,1.2,87,0.00,OVC,OVC,0.00,WeatherDisplay:10.37,2013-03-09 05:22:00,
2013-03-09 00:28:00,32.8,28.8,30.06,NNE,25,1.2,0.0,85,0.00,OVC,OVC,0.00,WeatherDisplay:10.37,2013-03-09 05:28:00,
2013-03-09 00:33:00,32.7,29.0,30.06,NE,34,1.0,0.0,86,0.00,OVC,OVC,0.00,WeatherDisplay:10.37,2013-03-09 05:33:00,
2013-03-09 00:38:00,32.5,28.8,30.06,NNE,15,1.2,0.0,86,0.00,OVC,OVC,0.00,WeatherDisplay:10.37,2013-03-09 05:38:00,
2013-03-09 00:43:00,32.3,28.9,30.06,NNE,30,3.5,3.5,87,0.00,OVC,OVC,0.00,WeatherDisplay:10.37,2013-03-09 05:43:00,
2013-03-09 00:49:00,32.1,28.7,30.06,NNE,30,2.3,2.3,87,0.00,OVC,OVC,0.00,WeatherDisplay:10.37,2013-03-09 05:49:00,
2013-03-09 00:54:00,32.0,28.6,30.06,NNE,25,3.5,3.5,87,0.00,OVC,OVC,0.00,WeatherDisplay:10.37,2013-03-09 05:54:00,
2013-03-09 00:59:00,32.1,28.7,30.07,NNE,25,2.3,0.0,87,0.00,OVC,OVC,0.00,WeatherDisplay:10.37,2013-03-09 05:59:00,
2013-03-09 01:04:00,31.9,29.0,30.07,NE,46,0.0,1.0,89,0.00,OVC,OVC,0.00,WeatherDisplay:10.37,2013-03-09 06:04:00,
2013-03-09 01:10:00,31.7,28.6,30.06,NE,39,4.0,4.0,88,0.01,RA,RA,0.01,WeatherDisplay:10.37,2013-03-09 06:10:00,
2013-03-09 01:15:00,31.8,27.8,30.06,NE,47,1.2,1.2,85,0.01,RA,RA,0.01,WeatherDisplay:10.37,2013-03-09 06:15:00,
2013-03-09 01:20:00,31.8,28.1,30.06,NE,47,1.2,1.2,86,0.01,OVC,OVC,0.01,WeatherDisplay:10.37,2013-03-09 06:20:00,
2013-03-09 01:25:00,32.0,28.3,30.06,North,9,1.2,0.0,86,0.01,OVC,OVC,0.01,WeatherDisplay:10.37,2013-03-09 06:25:00,
2013-03-09 01:31:00,31.9,28.2,30.06,North,9,1.2,1.2,86,0.01,OVC,OVC,0.01,WeatherDisplay:10.37,2013-03-09 06:31:00,
2013-03-09 01:36:00,31.7,28.3,30.06,North,9,0.0,0.0,87,0.01,OVC,OVC,0.01,WeatherDisplay:10.37,2013-03-09 06:36:00,
2013-03-09 01:41:00,31.4,28.0,30.06,NNE,29,0.0,0.1,87,0.01,OVC,OVC,0.01,WeatherDisplay:10.37,2013-03-09 06:41:00,
2013-03-09 01:47:00,31.2,27.8,30.06,NNE,29,1.2,1.2,87,0.01,OVC,OVC,0.01,WeatherDisplay:10.37,2013-03-09 06:47:00,
2013-03-09 01:52:00,31.0,27.9,30.07,NNE,29,0.0,0.0,88,0.01,OVC,OVC,0.01,WeatherDisplay:10.37,2013-03-09 06:52:00,
2013-03-09 01:57:00,30.9,27.5,30.06,NNE,29,1.2,0.0,87,0.01,OVC,OVC,0.01,WeatherDisplay:10.37,2013-03-09 06:57:00,
2013-03-09 02:02:00,30.7,27.8,30.06,NNE,29,0.0,0.0,89,0.01,OVC,OVC,0.01,WeatherDisplay:10.37,2013-03-09 07:02:00,
2013-03-09 02:08:00,30.6,27.5,30.06,North,5,0.0,0.0,88,0.01,OVC,OVC,0.01,WeatherDisplay:10.37,2013-03-09 07:08:00,
2013-03-09 02:13:00,30.5,27.4,30.06,North,360,0.0,0.0,88,0.00,OVC,OVC,0.01,WeatherDisplay:10.37,2013-03-09 07:13:00,
2013-03-09 02:18:00,30.4,27.5,30.06,North,360,0.0,0.0,89,0.00,OVC,OVC,0.01,WeatherDisplay:10.37,2013-03-09 07:18:00,
2013-03-09 02:23:00,30.2,27.3,30.06,North,360,0.0,0.0,89,0.00,OVC,OVC,0.01,WeatherDisplay:10.37,2013-03-09 07:23:00,
2013-03-09 02:29:00,30.1,27.5,30.06,North,360,0.0,0.0,90,0.00,OVC,OVC,0.01,WeatherDisplay:10.37,2013-03-09 07:29:00,
2013-03-09 02:34:00,30.1,26.7,30.06,North,360,2.3,2.3,87,0.00,OVC,OVC,0.01,WeatherDisplay:10.37,2013-03-09 07:34:00,
2013-03-09 02:39:00,30.1,27.3,30.06,North,360,0.0,0.0,89,0.00,OVC,OVC,0.01,WeatherDisplay:10.37,2013-03-09 07:39:00,
2013-03-09 02:44:00,30.1,26.7,30.06,NNE,12,0.0,0.0,87,0.00,OVC,OVC,0.01,WeatherDisplay:10.37,2013-03-09 07:44:00,
2013-03-09 02:49:00,30.0,27.2,30.06,NNE,12,0.0,0.0,89,0.00,OVC,OVC,0.01,WeatherDisplay:10.37,2013-03-09 07:49:00,
2013-03-09 02:55:00,29.9,26.8,30.06,North,5,2.3,2.3,88,0.00,OVC,OVC,0.01,WeatherDisplay:10.37,2013-03-09 07:55:00,
2013-03-09 03:00:00,30.0,26.6,30.06,North,5,2.3,0.0,87,0.00,OVC,OVC,0.01,WeatherDisplay:10.37,2013-03-09 08:00:00,
2013-03-09 03:05:00,30.1,26.7,30.06,NNE,26,0.0,0.0,87,0.00,OVC,OVC,0.01,WeatherDisplay:10.37,2013-03-09 08:05:00,
2013-03-09 03:10:00,30.0,26.3,30.06,NNE,32,0.0,0.0,86,0.00,OVC,OVC,0.01,WeatherDisplay:10.37,2013-03-09 08:10:00,
2013-03-09 03:16:00,30.0,26.3,30.06,NNE,16,3.5,3.5,86,0.00,OVC,OVC,0.01,WeatherDisplay:10.37,2013-03-09 08:16:00,
2013-03-09 03:21:00,30.2,26.5,30.06,NNE,16,0.0,0.0,86,0.00,OVC,OVC,0.01,WeatherDisplay:10.37,2013-03-09 08:21:00,
2013-03-09 03:26:00,30.2,26.5,30.06,NNE,32,2.3,0.0,86,0.00,OVC,OVC,0.01,WeatherDisplay:10.37,2013-03-09 08:26:00,
2013-03-09 03:31:00,30.2,26.8,30.06,North,5,1.2,0.0,87,0.00,OVC,OVC,0.01,WeatherDisplay:10.37,2013-03-09 08:31:00,
2013-03-09 03:36:00,30.0,26.0,30.06,NNE,22,3.5,3.5,85,0.00,OVC,OVC,0.01,WeatherDisplay:10.37,2013-03-09 08:36:00,
2013-03-09 03:42:00,30.2,26.2,30.06,East,88,1.2,1.2,85,0.00,OVC,OVC,0.01,WeatherDisplay:10.37,2013-03-09 08:42:00,
2013-03-09 03:47:00,30.3,26.3,30.07,ENE,59,1.2,1.2,85,0.00,OVC,OVC,0.01,WeatherDisplay:10.37,2013-03-09 08:47:00,
2013-03-09 03:52:00,30.2,26.2,30.07,NNE,15,2.3,2.3,85,0.00,OVC,OVC,0.01,WeatherDisplay:10.37,2013-03-09 08:52:00,
2013-03-09 03:58:00,30.2,25.9,30.07,NNE,32,0.0,0.0,84,0.00,OVC,OVC,0.01,WeatherDisplay:10.37,2013-03-09 08:58:00,
2013-03-09 04:03:00,30.1,26.4,30.07,NNE,32,1.2,1.2,86,0.00,OVC,OVC,0.01,WeatherDisplay:10.37,2013-03-09 09:03:00,
2013-03-09 04:08:00,29.8,25.8,30.07,NNE,32,0.0,0.4,85,0.00,OVC,OVC,0.01,WeatherDisplay:10.37,2013-03-09 09:08:00,
2013-03-09 04:13:00,29.7,26.0,30.07,NE,52,0.0,0.0,86,0.00,OVC,OVC,0.01,WeatherDisplay:10.37,2013-03-09 09:13:00,
2013-03-09 04:18:00,29.7,25.7,30.07,NE,34,2.3,2.3,85,0.00,OVC,OVC,0.01,WeatherDisplay:10.37,2013-03-09 09:18:00,
2013-03-09 04:24:00,29.7,25.7,30.08,NNE,24,1.2,1.2,85,0.00,OVC,OVC,0.01,WeatherDisplay:10.37,2013-03-09 09:24:00,
2013-03-09 04:29:00,29.9,25.7,30.08,NE,42,3.5,3.5,84,0.00,OVC,OVC,0.01,WeatherDisplay:10.37,2013-03-09 09:29:00,
2013-03-09 04:34:00,30.0,25.5,30.08,NE,42,2.3,2.3,83,0.00,OVC,OVC,0.01,WeatherDisplay:10.37,2013-03-09 09:34:00,
2013-03-09 04:40:00,29.9,25.7,30.08,NNE,32,2.3,2.3,84,0.00,OVC,OVC,0.01,WeatherDisplay:10.37,2013-03-09 09:40:00,
2013-03-09 04:45:00,29.8,26.1,30.08,NNE,32,0.0,0.0,86,0.00,OVC,OVC,0.01,WeatherDisplay:10.37,2013-03-09 09:45:00,
2013-03-09 04:50:00,29.6,25.9,30.08,North,11,1.2,0.0,86,0.00,OVC,OVC,0.01,WeatherDisplay:10.37,2013-03-09 09:50:00,
2013-03-09 04:55:00,29.4,25.2,30.08,NE,41,3.5,3.5,84,0.00,OVC,OVC,0.01,WeatherDisplay:10.37,2013-03-09 09:55:00,
2013-03-09 05:01:00,29.5,25.3,30.08,NE,34,1.0,0.0,84,0.00,OVC,OVC,0.01,WeatherDisplay:10.37,2013-03-09 10:01:00,
2013-03-09 05:06:00,29.5,25.5,30.09,NE,34,2.0,2.0,85,0.00,OVC,OVC,0.01,WeatherDisplay:10.37,2013-03-09 10:06:00,
2013-03-09 05:11:00,29.4,25.4,30.09,NE,34,1.2,0.0,85,0.00,OVC,OVC,0.01,WeatherDisplay:10.37,2013-03-09 10:11:00,
2013-03-09 05:16:00,29.2,25.5,30.09,NE,34,0.0,0.0,86,0.00,OVC,OVC,0.01,WeatherDisplay:10.37,2013-03-09 10:16:00,
2013-03-09 05:22:00,28.9,25.2,30.09,NE,34,0.0,0.0,86,0.00,OVC,OVC,0.01,WeatherDisplay:10.37,2013-03-09 10:22:00,
2013-03-09 05:27:00,28.7,25.3,30.09,NE,34,2.3,2.3,87,0.00,OVC,OVC,0.01,WeatherDisplay:10.37,2013-03-09 10:27:00,
2013-03-09 05:32:00,28.6,24.7,30.10,NE,34,0.0,0.2,85,0.00,OVC,OVC,0.01,WeatherDisplay:10.37,2013-03-09 10:32:00,
2013-03-09 05:37:00,28.7,24.8,30.10,NE,36,0.0,0.2,85,0.00,OVC,OVC,0.01,WeatherDisplay:10.37,2013-03-09 10:37:00,
2013-03-09 05:43:00,28.7,24.8,30.11,NNE,16,1.2,1.2,85,0.00,OVC,OVC,0.01,WeatherDisplay:10.37,2013-03-09 10:43:00,
2013-03-09 05:48:00,28.9,24.7,30.11,NNE,13,2.3,0.0,84,0.00,OVC,OVC,0.01,WeatherDisplay:10.37,2013-03-09 10:48:00,
2013-03-09 05:53:00,28.9,24.7,30.11,NE,36,2.3,0.0,84,0.00,OVC,OVC,0.01,WeatherDisplay:10.37,2013-03-09 10:53:00,
2013-03-09 05:59:00,28.8,24.6,30.11,NE,38,1.2,1.2,84,0.00,OVC,OVC,0.01,WeatherDisplay:10.37,2013-03-09 10:59:00,
2013-03-09 06:04:00,28.7,24.5,30.11,NNE,32,2.3,0.0,84,0.00,CLR,CLR,0.01,WeatherDisplay:10.37,2013-03-09 11:04:00,
2013-03-09 06:09:00,28.6,24.7,30.11,NNE,32,0.0,0.0,85,0.00,CLR,CLR,0.01,WeatherDisplay:10.37,2013-03-09 11:09:00,
2013-03-09 06:14:00,28.5,24.6,30.11,NNE,32,1.2,1.2,85,0.00,CLR,CLR,0.01,WeatherDisplay:10.37,2013-03-09 11:14:00,
2013-03-09 06:20:00,28.5,24.6,30.11,North,5,0.0,0.0,85,0.00,CLR,CLR,0.01,WeatherDisplay:10.37,2013-03-09 11:20:00,
2013-03-09 06:25:00,28.5,24.8,30.12,North,5,0.0,0.0,86,0.00,CLR,CLR,0.01,WeatherDisplay:10.37,2013-03-09 11:25:00,
2013-03-09 06:30:00,28.4,24.7,30.12,NE,41,2.3,2.3,86,0.00,CLR,CLR,0.01,WeatherDisplay:10.37,2013-03-09 11:30:00,
2013-03-09 06:35:00,28.4,24.2,30.13,NNE,33,2.3,2.3,84,0.00,CLR,CLR,0.01,WeatherDisplay:10.37,2013-03-09 11:35:00,
2013-03-09 06:41:00,28.4,24.5,30.13,NNE,33,0.0,0.0,85,0.00,CLR,CLR,0.01,WeatherDisplay:10.37,2013-03-09 11:41:00,
2013-03-09 06:46:00,28.4,24.7,30.13,NE,42,0.0,0.0,86,0.00,CLR,CLR,0.01,WeatherDisplay:10.37,2013-03-09 11:46:00,
2013-03-09 06:51:00,28.5,24.6,30.13,NNE,33,1.0,1.0,85,0.00,CLR,CLR,0.01,WeatherDisplay:10.37,2013-03-09 11:51:00,
2013-03-09 06:56:00,28.7,24.8,30.13,NNE,33,2.0,2.0,85,0.00,CLR,CLR,0.01,WeatherDisplay:10.37,2013-03-09 11:56:00,
2013-03-09 07:01:00,28.9,25.0,30.13,NE,42,2.3,0.0,85,0.00,CLR,CLR,0.01,WeatherDisplay:10.37,2013-03-09 12:01:00,
2013-03-09 07:07:00,29.0,25.1,30.13,NE,40,2.3,2.3,85,0.00,CLR,CLR,0.01,WeatherDisplay:10.37,2013-03-09 12:07:00,
2013-03-09 07:12:00,29.3,25.6,30.14,NNE,32,3.5,3.5,86,0.00,CLR,CLR,0.01,WeatherDisplay:10.37,2013-03-09 12:12:00,
2013-03-09 07:17:00,29.8,25.6,30.14,North,355,2.3,2.3,84,0.00,CLR,CLR,0.01,WeatherDisplay:10.37,2013-03-09 12:17:00,
2013-03-09 07:23:00,30.1,25.8,30.14,NNE,17,3.5,3.5,84,0.00,CLR,CLR,0.01,WeatherDisplay:10.37,2013-03-09 12:23:00,
2013-03-09 07:28:00,30.4,26.1,30.14,NNW,339,2.0,2.0,84,0.00,CLR,CLR,0.01,WeatherDisplay:10.37,2013-03-09 12:28:00,
2013-03-09 07:33:00,30.8,26.0,30.15,NE,46,3.5,3.9,82,0.00,CLR,CLR,0.01,WeatherDisplay:10.37,2013-03-09 12:33:00,
2013-03-09 07:38:00,31.4,26.5,30.15,NE,49,5.0,5.0,82,0.00,CLR,CLR,0.01,WeatherDisplay:10.37,2013-03-09 12:38:00,
2013-03-09 07:44:00,31.9,26.4,30.15,North,360,2.3,2.3,80,0.00,CLR,CLR,0.01,WeatherDisplay:10.37,2013-03-09 12:44:00,
2013-03-09 07:49:00,32.4,27.2,30.15,NNE,33,3.5,3.5,81,0.00,CLR,CLR,0.01,WeatherDisplay:10.37,2013-03-09 12:49:00,
2013-03-09 07:54:00,32.8,27.3,30.15,NNW,346,3.5,3.5,80,0.00,CLR,CLR,0.01,WeatherDisplay:10.37,2013-03-09 12:54:00,
2013-03-09 07:59:00,33.1,27.3,30.15,ESE,120,3.5,3.5,79,0.00,CLR,CLR,0.01,WeatherDisplay:10.37,2013-03-09 12:59:00,
2013-03-09 08:05:00,33.4,27.3,30.15,NE,44,3.5,3.5,78,0.00,CLR,CLR,0.01,WeatherDisplay:10.37,2013-03-09 13:05:00,
2013-03-09 08:10:00,33.8,28.0,30.16,NE,55,6.9,6.9,79,0.00,CLR,CLR,0.01,WeatherDisplay:10.37,2013-03-09 13:10:00,
2013-03-09 08:15:00,34.2,27.7,30.15,North,11,4.6,4.6,77,0.00,CLR,CLR,0.01,WeatherDisplay:10.37,2013-03-09 13:15:00,
2013-03-09 08:20:00,34.6,28.4,30.15,West,279,6.9,6.9,78,0.00,CLR,CLR,0.01,WeatherDisplay:10.37,2013-03-09 13:20:00,
2013-03-09 08:25:00,35.0,28.8,30.15,NE,52,3.5,3.8,78,0.00,CLR,CLR,0.01,WeatherDisplay:10.37,2013-03-09 13:25:00,
2013-03-09 08:31:00,35.5,29.0,30.15,North,9,3.5,3.5,77,0.00,CLR,CLR,0.01,WeatherDisplay:10.37,2013-03-09 13:31:00,
2013-03-09 08:36:00,35.9,29.7,30.15,East,85,4.6,4.6,78,0.00,CLR,CLR,0.01,WeatherDisplay:10.37,2013-03-09 13:36:00,
2013-03-09 08:41:00,36.5,29.7,30.15,NNE,28,4.6,4.6,76,0.00,CLR,CLR,0.01,WeatherDisplay:10.37,2013-03-09 13:41:00,
2013-03-09 08:47:00,36.8,29.6,30.15,North,5,4.0,4.1,75,0.00,CLR,CLR,0.01,WeatherDisplay:10.37,2013-03-09 13:47:00,
2013-03-09 08:52:00,36.8,29.6,30.16,NE,34,4.6,4.6,75,0.01,RA,RA,0.02,WeatherDisplay:10.37,2013-03-09 13:52:00,
2013-03-09 08:57:00,37.4,30.2,30.16,NNE,28,3.5,3.5,75,0.02,RA,RA,0.03,WeatherDisplay:10.37,2013-03-09 13:57:00,
2013-03-09 09:02:00,37.8,30.6,30.16,NNE,28,3.5,3.7,75,0.03,RA,RA,0.04,WeatherDisplay:10.37,2013-03-09 14:02:00,
2013-03-09 09:08:00,38.1,30.2,30.16,NE,44,2.3,2.3,73,0.04,RA,RA,0.05,WeatherDisplay:10.37,2013-03-09 14:08:00,
2013-03-09 09:13:00,38.1,31.2,30.16,NE,44,5.8,5.8,76,0.05,RA,RA,0.06,WeatherDisplay:10.37,2013-03-09 14:13:00,
2013-03-09 09:18:00,37.7,30.5,30.16,North,355,9.2,9.2,75,0.05,RA,RA,0.06,WeatherDisplay:10.37,2013-03-09 14:18:00,
2013-03-09 09:23:00,37.6,31.0,30.16,NNE,17,3.5,3.5,77,0.05,CLR,CLR,0.06,WeatherDisplay:10.37,2013-03-09 14:23:00,
2013-03-09 09:29:00,37.9,31.7,30.16,South,176,5.0,5.0,78,0.06,RA,RA,0.07,WeatherDisplay:10.37,2013-03-09 14:29:00,
2013-03-09 09:34:00,37.8,30.9,30.16,NE,34,5.8,5.8,76,0.06,RA,RA,0.07,WeatherDisplay:10.37,2013-03-09 14:34:00,
2013-03-09 09:39:00,38.0,31.4,30.16,North,360,2.3,2.3,77,0.07,RA,RA,0.08,WeatherDisplay:10.37,2013-03-09 14:39:00,
2013-03-09 09:44:00,38.5,32.2,30.17,NE,42,3.5,3.5,78,0.08,RA,RA,0.09,WeatherDisplay:10.37,2013-03-09 14:44:00,
2013-03-09 09:50:00,38.9,32.0,30.17,NE,36,3.5,3.5,76,0.09,RA,RA,0.11,WeatherDisplay:10.37,2013-03-09 14:50:00,
2013-03-09 09:55:00,39.1,31.8,30.17,NNE,17,7.0,7.0,75,0.11,RA,RA,0.13,WeatherDisplay:10.37,2013-03-09 14:55:00,
2013-03-09 10:00:00,39.0,32.4,30.17,NE,46,3.5,3.5,77,0.11,RA,RA,0.15,WeatherDisplay:10.37,2013-03-09 15:00:00,
2013-03-09 10:06:00,39.3,32.4,30.17,SE,142,5.8,5.8,76,0.12,RA,RA,0.17,WeatherDisplay:10.37,2013-03-09 15:06:00,
2013-03-09 10:11:00,39.2,31.9,30.17,NNW,330,9.0,9.0,75,0.14,RA,RA,0.19,WeatherDisplay:10.37,2013-03-09 15:11:00,
2013-03-09 10:16:00,39.1,31.8,30.16,ENE,57,5.8,5.8,75,0.15,RA,RA,0.21,WeatherDisplay:10.37,2013-03-09 15:16:00,
2013-03-09 10:21:00,39.2,31.6,30.17,NE,42,4.6,4.6,74,0.17,RA,RA,0.24,WeatherDisplay:10.37,2013-03-09 15:21:00,
2013-03-09 10:26:00,39.2,31.6,30.16,East,92,4.6,4.6,74,0.20,RA,RA,0.26,WeatherDisplay:10.37,2013-03-09 15:26:00,
2013-03-09 10:31:00,39.6,32.7,30.16,NE,38,3.0,3.0,76,0.21,RA,RA,0.29,WeatherDisplay:10.37,2013-03-09 15:31:00,
2013-03-09 10:36:00,39.7,32.1,30.17,NNW,334,3.5,3.5,74,0.23,RA,RA,0.31,WeatherDisplay:10.37,2013-03-09 15:36:00,
2013-03-09 10:42:00,39.7,32.1,30.17,NE,45,3.5,3.5,74,0.26,RA,RA,0.34,WeatherDisplay:10.37,2013-03-09 15:42:00,
2013-03-09 10:47:00,39.8,31.8,30.17,NE,51,5.8,5.8,73,0.27,RA,RA,0.37,WeatherDisplay:10.37,2013-03-09 15:47:00,
2013-03-09 10:52:00,40.0,32.0,30.17,NNE,22,4.6,4.6,73,0.26,RA,RA,0.39,WeatherDisplay:10.37,2013-03-09 15:52:00,
2013-03-09 10:57:00,40.3,32.7,30.18,ESE,102,3.5,3.5,74,0.28,RA,RA,0.41,WeatherDisplay:10.37,2013-03-09 15:57:00,
2013-03-09 11:03:00,40.6,32.3,30.17,NE,47,5.8,5.8,72,0.28,RA,RA,0.44,WeatherDisplay:10.37,2013-03-09 16:03:00,
2013-03-09 11:08:00,40.6,32.6,30.17,ENE,71,4.6,4.6,73,0.29,RA,RA,0.47,WeatherDisplay:10.37,2013-03-09 16:08:00,
2013-03-09 11:13:00,40.8,32.5,30.17,North,355,5.8,5.8,72,0.30,RA,RA,0.51,WeatherDisplay:10.37,2013-03-09 16:13:00,
2013-03-09 11:18:00,41.3,33.0,30.17,NNE,26,4.6,4.6,72,0.31,RA,RA,0.54,WeatherDisplay:10.37,2013-03-09 16:18:00,
2013-03-09 11:24:00,41.1,33.1,30.17,NNE,30,3.5,3.5,73,0.32,RA,RA,0.57,WeatherDisplay:10.37,2013-03-09 16:24:00,
2013-03-09 11:29:00,41.0,32.7,30.17,NE,49,4.0,4.0,72,0.32,RA,RA,0.59,WeatherDisplay:10.37,2013-03-09 16:29:00,
2013-03-09 11:34:00,41.3,33.6,30.17,NNE,33,2.3,2.3,74,0.32,RA,RA,0.62,WeatherDisplay:10.37,2013-03-09 16:34:00,
2013-03-09 11:39:00,41.7,34.0,30.18,ENE,57,3.0,3.0,74,0.32,RA,RA,0.64,WeatherDisplay:10.37,2013-03-09 16:39:00,
2013-03-09 11:44:00,41.8,33.4,30.18,NW,304,4.0,4.0,72,0.32,RA,RA,0.67,WeatherDisplay:10.37,2013-03-09 16:44:00,
2013-03-09 11:50:00,41.9,33.5,30.18,North,5,3.5,3.5,72,0.32,RA,RA,0.69,WeatherDisplay:10.37,2013-03-09 16:50:00,
2013-03-09 11:55:00,41.8,32.4,30.18,NNE,26,6.0,6.0,69,0.32,RA,RA,0.72,WeatherDisplay:10.37,2013-03-09 16:55:00,
2013-03-09 12:00:00,41.3,31.5,30.18,ENE,61,4.6,4.6,68,0.32,RA,RA,0.74,WeatherDisplay:10.37,2013-03-09 17:00:00,
2013-03-09 12:05:00,41.4,32.7,30.18,NE,56,2.3,2.3,71,0.31,RA,RA,0.76,WeatherDisplay:10.37,2013-03-09 17:05:00,
2013-03-09 12:10:00,41.7,32.6,30.18,NNW,338,3.5,3.5,70,0.30,RA,RA,0.78,WeatherDisplay:10.37,2013-03-09 17:10:00,
2013-03-09 12:16:00,41.9,32.8,30.18,NNW,344,7.0,7.0,70,0.29,RA,RA,0.80,WeatherDisplay:10.37,2013-03-09 17:16:00,
2013-03-09 12:21:00,41.8,31.6,30.18,NNE,24,4.6,4.6,67,0.27,RA,RA,0.82,WeatherDisplay:10.37,2013-03-09 17:21:00,
2013-03-09 12:26:00,41.6,31.8,30.18,NE,36,8.0,8.0,68,0.27,RA,RA,0.85,WeatherDisplay:10.37,2013-03-09 17:26:00,
2013-03-09 12:31:00,41.5,31.7,30.18,NE,37,4.6,4.6,68,0.26,RA,RA,0.86,WeatherDisplay:10.37,2013-03-09 17:31:00,
2013-03-09 12:37:00,41.4,30.9,30.18,North,350,4.6,4.6,66,0.25,RA,RA,0.88,WeatherDisplay:10.37,2013-03-09 17:37:00,
2013-03-09 12:42:00,41.4,31.6,30.18,ESE,113,3.5,3.5,68,0.23,RA,RA,0.89,WeatherDisplay:10.37,2013-03-09 17:42:00,
2013-03-09 12:47:00,41.3,30.4,30.18,NE,42,3.5,3.5,65,0.22,RA,RA,0.90,WeatherDisplay:10.37,2013-03-09 17:47:00,
2013-03-09 12:52:00,41.5,32.4,30.18,NE,34,3.0,3.0,70,0.21,RA,RA,0.91,WeatherDisplay:10.37,2013-03-09 17:52:00,
2013-03-09 12:58:00,41.4,31.3,30.18,NNE,32,3.5,3.5,67,0.19,RA,RA,0.92,WeatherDisplay:10.37,2013-03-09 17:58:00,
2013-03-09 13:03:00,41.1,30.2,30.18,NNE,26,3.5,3.5,65,0.18,RA,RA,0.93,WeatherDisplay:10.37,2013-03-09 18:03:00,
2013-03-09 13:08:00,41.2,30.3,30.18,North,5,6.0,6.0,65,0.17,RA,RA,0.94,WeatherDisplay:10.37,2013-03-09 18:08:00,
2013-03-09 13:14:00,41.3,30.0,30.18,NNE,33,5.8,5.8,64,0.15,RA,RA,0.95,WeatherDisplay:10.37,2013-03-09 18:14:00,
2013-03-09 13:19:00,41.3,30.8,30.18,North,360,3.5,3.5,66,0.14,RA,RA,0.96,WeatherDisplay:10.37,2013-03-09 18:19:00,
2013-03-09 13:24:00,41.5,30.6,30.17,NE,53,2.3,2.3,65,0.14,RA,RA,0.97,WeatherDisplay:10.37,2013-03-09 18:24:00,
2013-03-09 13:29:00,41.8,32.4,30.17,NE,55,2.3,2.3,69,0.12,RA,RA,0.97,WeatherDisplay:10.37,2013-03-09 18:29:00,
2013-03-09 13:34:00,41.9,32.5,30.17,NE,49,2.3,2.3,69,0.11,RA,RA,0.98,WeatherDisplay:10.37,2013-03-09 18:34:00,
2013-03-09 13:40:00,42.0,32.2,30.17,ENE,78,3.5,3.5,68,0.09,RA,RA,0.99,WeatherDisplay:10.37,2013-03-09 18:40:00,
2013-03-09 13:45:00,41.8,31.3,30.17,NNE,31,3.5,3.5,66,0.09,RA,RA,0.99,WeatherDisplay:10.37,2013-03-09 18:45:00,
2013-03-09 13:50:00,41.8,31.6,30.17,NE,52,3.5,3.5,67,0.09,RA,RA,1.00,WeatherDisplay:10.37,2013-03-09 18:50:00,
2013-03-09 13:56:00,41.8,31.6,30.17,ENE,76,1.2,0.0,67,0.08,RA,RA,1.00,WeatherDisplay:10.37,2013-03-09 18:56:00,
2013-03-09 14:01:00,42.1,31.2,30.17,NE,47,4.6,4.6,65,0.08,RA,RA,1.01,WeatherDisplay:10.37,2013-03-09 19:01:00,
2013-03-09 14:06:00,41.9,31.0,30.17,NNE,26,3.5,3.5,65,0.07,RA,RA,1.01,WeatherDisplay:10.37,2013-03-09 19:06:00,
2013-03-09 14:11:00,41.9,31.4,30.17,NNE,33,3.5,3.5,66,0.07,RA,RA,1.02,WeatherDisplay:10.37,2013-03-09 19:11:00,
2013-03-09 14:17:00,41.9,31.7,30.17,East,98,3.5,3.5,67,0.06,RA,RA,1.02,WeatherDisplay:10.37,2013-03-09 19:17:00,
2013-03-09 14:22:00,42.1,31.9,30.17,NE,53,1.2,1.2,67,0.07,RA,RA,1.03,WeatherDisplay:10.37,2013-03-09 19:22:00,
2013-03-09 14:27:00,42.2,31.3,30.17,NE,35,4.6,4.6,65,0.06,RA,RA,1.03,WeatherDisplay:10.37,2013-03-09 19:27:00,
2013-03-09 14:32:00,42.1,31.9,30.17,East,92,2.3,2.3,67,0.06,RA,RA,1.04,WeatherDisplay:10.37,2013-03-09 19:32:00,
2013-03-09 14:37:00,42.1,31.9,30.17,East,92,2.0,2.0,67,0.06,RA,RA,1.04,WeatherDisplay:10.37,2013-03-09 19:37:00,
2013-03-09 14:43:00,42.2,32.4,30.17,NE,47,3.5,3.5,68,0.06,RA,RA,1.05,WeatherDisplay:10.37,2013-03-09 19:43:00,
2013-03-09 14:48:00,42.4,32.2,30.17,ESE,110,4.6,4.6,67,0.06,RA,RA,1.05,WeatherDisplay:10.37,2013-03-09 19:48:00,
2013-03-09 14:53:00,42.2,32.0,30.17,NE,42,3.0,3.0,67,0.06,RA,RA,1.06,WeatherDisplay:10.37,2013-03-09 19:53:00,
2013-03-09 14:59:00,42.1,31.2,30.17,ENE,57,3.5,3.5,65,0.06,RA,RA,1.06,WeatherDisplay:10.37,2013-03-09 19:59:00,
2013-03-09 15:04:00,42.2,32.4,30.17,East,84,1.2,0.0,68,0.06,RA,RA,1.07,WeatherDisplay:10.37,2013-03-09 20:04:00,
2013-03-09 15:09:00,42.1,33.0,30.17,SE,135,3.5,0.0,70,0.05,RA,RA,1.07,WeatherDisplay:10.37,2013-03-09 20:09:00,
2013-03-09 15:14:00,42.0,32.2,30.17,NE,53,4.0,4.0,68,0.05,OVC,OVC,1.07,WeatherDisplay:10.37,2013-03-09 20:14:00,
2013-03-09 15:19:00,41.9,32.1,30.17,ENE,67,3.5,3.5,68,0.05,RA,RA,1.08,WeatherDisplay:10.37,2013-03-09 20:19:00,
2013-03-09 15:25:00,41.6,31.4,30.17,NE,48,3.5,3.5,67,0.05,RA,RA,1.08,WeatherDisplay:10.37,2013-03-09 20:25:00,
2013-03-09 15:30:00,41.5,31.4,30.17,NE,47,1.2,0.0,67,0.04,OVC,OVC,1.08,WeatherDisplay:10.37,2013-03-09 20:30:00,
2013-03-09 15:35:00,41.4,31.6,30.17,ESE,119,3.5,3.5,68,0.04,OVC,OVC,1.08,WeatherDisplay:10.37,2013-03-09 20:35:00,
2013-03-09 15:40:00,41.5,31.7,30.17,WNW,300,2.3,2.3,68,0.04,RA,RA,1.09,WeatherDisplay:10.37,2013-03-09 20:40:00,
2013-03-09 15:46:00,41.4,32.0,30.17,ENE,70,2.3,2.3,69,0.04,RA,RA,1.09,WeatherDisplay:10.37,2013-03-09 20:46:00,
2013-03-09 15:51:00,41.3,32.6,30.18,ENE,70,1.2,0.0,71,0.03,OVC,OVC,1.09,WeatherDisplay:10.37,2013-03-09 20:51:00,
2013-03-09 15:56:00,41.1,32.4,30.18,ENE,73,2.3,2.3,71,0.03,OVC,OVC,1.09,WeatherDisplay:10.37,2013-03-09 20:56:00,
2013-03-09 16:01:00,41.0,32.0,30.18,NE,46,2.3,2.3,70,0.03,OVC,OVC,1.09,WeatherDisplay:10.37,2013-03-09 21:01:00,
2013-03-09 16:06:00,40.8,31.8,30.18,ENE,64,3.5,3.5,70,0.02,OVC,OVC,1.09,WeatherDisplay:10.37,2013-03-09 21:06:00,
2013-03-09 16:12:00,40.6,32.3,30.18,NE,46,1.2,1.2,72,0.03,RA,RA,1.10,WeatherDisplay:10.37,2013-03-09 21:12:00,
2013-03-09 16:17:00,40.2,31.9,30.19,ENE,61,3.5,3.5,72,0.03,RA,RA,1.10,WeatherDisplay:10.37,2013-03-09 21:17:00,
2013-03-09 16:22:00,40.0,31.7,30.19,ENE,71,0.0,0.1,72,0.02,OVC,OVC,1.10,WeatherDisplay:10.37,2013-03-09 21:22:00,
2013-03-09 16:28:00,39.8,32.2,30.19,East,88,1.2,1.2,74,0.02,OVC,OVC,1.10,WeatherDisplay:10.37,2013-03-09 21:28:00,
2013-03-09 16:33:00,39.5,31.6,30.20,NE,54,1.2,1.2,73,0.02,OVC,OVC,1.10,WeatherDisplay:10.37,2013-03-09 21:33:00,
2013-03-09 16:38:00,39.4,31.8,30.20,NE,51,0.0,0.0,74,0.02,OVC,OVC,1.10,WeatherDisplay:10.37,2013-03-09 21:38:00,
2013-03-09 16:43:00,39.2,31.9,30.20,ENE,60,1.2,0.0,75,0.01,OVC,OVC,1.10,WeatherDisplay:10.37,2013-03-09 21:43:00,
2013-03-09 16:48:00,39.1,32.2,30.20,ENE,67,0.0,0.0,76,0.01,OVC,OVC,1.10,WeatherDisplay:10.37,2013-03-09 21:48:00,
2013-03-09 16:54:00,38.9,32.0,30.20,East,97,1.2,1.2,76,0.01,OVC,OVC,1.10,WeatherDisplay:10.37,2013-03-09 21:54:00,
2013-03-09 16:59:00,38.7,31.8,30.21,ENE,61,1.0,0.0,76,0.02,RA,RA,1.11,WeatherDisplay:10.37,2013-03-09 21:59:00,
2013-03-09 17:04:00,38.5,31.6,30.21,NE,48,0.0,1.2,76,0.02,RA,RA,1.11,WeatherDisplay:10.37,2013-03-09 22:04:00,
2013-03-09 17:09:00,38.3,31.7,30.21,NE,48,1.2,0.0,77,0.02,OVC,OVC,1.11,WeatherDisplay:10.37,2013-03-09 22:09:00,
2013-03-09 17:15:00,38.1,31.8,30.21,NE,48,0.0,0.0,78,0.01,OVC,OVC,1.11,WeatherDisplay:10.37,2013-03-09 22:15:00,
2013-03-09 17:20:00,37.8,31.6,30.22,NE,48,0.0,0.0,78,0.01,OVC,OVC,1.11,WeatherDisplay:10.37,2013-03-09 22:20:00,
2013-03-09 17:25:00,37.5,31.6,30.22,NE,48,1.2,0.0,79,0.01,OVC,OVC,1.11,WeatherDisplay:10.37,2013-03-09 22:25:00,
2013-03-09 17:31:00,37.2,31.6,30.22,NE,48,2.3,2.3,80,0.01,OVC,OVC,1.11,WeatherDisplay:10.37,2013-03-09 22:31:00,
2013-03-09 17:36:00,36.9,31.3,30.22,NE,48,0.0,0.0,80,0.01,OVC,OVC,1.11,WeatherDisplay:10.37,2013-03-09 22:36:00,
2013-03-09 17:41:00,36.7,31.4,30.22,NE,48,0.0,0.0,81,0.01,OVC,OVC,1.11,WeatherDisplay:10.37,2013-03-09 22:41:00,
2013-03-09 17:46:00,36.4,31.1,30.23,NE,48,0.0,0.0,81,0.01,OVC,OVC,1.11,WeatherDisplay:10.37,2013-03-09 22:46:00,
2013-03-09 17:51:00,36.1,31.1,30.23,NE,48,0.0,0.0,82,0.01,OVC,OVC,1.11,WeatherDisplay:10.37,2013-03-09 22:51:00,
2013-03-09 17:57:00,35.8,30.8,30.23,NE,48,0.0,0.0,82,0.00,OVC,OVC,1.11,WeatherDisplay:10.37,2013-03-09 22:57:00,
2013-03-09 18:02:00,35.5,30.8,30.23,NE,48,0.0,0.0,83,0.00,CLR,CLR,1.11,WeatherDisplay:10.37,2013-03-09 23:02:00,
2013-03-09 18:07:00,35.2,30.9,30.24,NE,48,0.0,0.0,84,0.00,CLR,CLR,1.11,WeatherDisplay:10.37,2013-03-09 23:07:00,
2013-03-09 18:12:00,34.8,30.5,30.24,NE,48,0.0,0.0,84,0.00,CLR,CLR,1.11,WeatherDisplay:10.37,2013-03-09 23:12:00,
2013-03-09 18:18:00,34.4,30.4,30.24,NE,48,0.0,0.0,85,0.00,CLR,CLR,1.11,WeatherDisplay:10.37,2013-03-09 23:18:00,
2013-03-09 18:23:00,34.1,30.4,30.24,NE,48,0.0,0.0,86,0.00,CLR,CLR,1.11,WeatherDisplay:10.37,2013-03-09 23:23:00,
2013-03-09 18:28:00,33.7,30.2,30.24,NE,48,0.0,0.0,87,0.00,CLR,CLR,1.11,WeatherDisplay:10.37,2013-03-09 23:28:00,
2013-03-09 18:33:00,33.4,30.2,30.24,NE,48,0.0,0.0,88,0.00,CLR,CLR,1.11,WeatherDisplay:10.37,2013-03-09 23:33:00,
2013-03-09 18:38:00,33.0,29.8,30.24,NE,48,0.0,0.0,88,0.00,CLR,CLR,1.11,WeatherDisplay:10.37,2013-03-09 23:38:00,
2013-03-09 18:44:00,32.8,29.6,30.24,NE,48,0.0,0.0,88,0.00,CLR,CLR,1.11,WeatherDisplay:10.37,2013-03-09 23:44:00,
2013-03-09 18:49:00,32.5,29.6,30.24,NE,48,0.0,0.0,89,0.00,CLR,CLR,1.11,WeatherDisplay:10.37,2013-03-09 23:49:00,
2013-03-09 18:54:00,32.3,29.7,30.24,NE,48,0.0,0.0,90,0.00,CLR,CLR,1.11,WeatherDisplay:10.37,2013-03-09 23:54:00,
2013-03-09 19:00:00,32.0,29.4,30.24,NE,48,0.0,0.0,90,0.00,CLR,CLR,1.11,WeatherDisplay:10.37,2013-03-10 00:00:00,
2013-03-09 19:05:00,31.7,29.4,30.24,NE,48,0.0,0.0,91,0.00,CLR,CLR,1.11,WeatherDisplay:10.37,2013-03-10 00:05:00,
2013-03-09 19:10:00,31.4,29.1,30.24,NE,48,0.0,0.0,91,0.00,CLR,CLR,1.11,WeatherDisplay:10.37,2013-03-10 00:10:00,
2013-03-09 19:15:00,31.2,28.9,30.24,NE,48,0.0,0.0,91,0.00,CLR,CLR,1.11,WeatherDisplay:10.37,2013-03-10 00:15:00,
2013-03-09 19:20:00,31.0,28.9,30.24,NE,48,0.0,0.0,92,0.00,CLR,CLR,1.11,WeatherDisplay:10.37,2013-03-10 00:20:00,
2013-03-09 19:26:00,30.8,29.0,30.24,NE,48,0.0,0.0,93,0.00,CLR,CLR,1.11,WeatherDisplay:10.37,2013-03-10 00:26:00,
2013-03-09 19:31:00,30.6,28.8,30.24,NE,48,0.0,0.0,93,0.00,CLR,CLR,1.11,WeatherDisplay:10.37,2013-03-10 00:31:00,
2013-03-09 19:36:00,30.5,28.7,30.25,NE,48,0.0,0.0,93,0.00,CLR,CLR,1.11,WeatherDisplay:10.37,2013-03-10 00:36:00,
2013-03-09 19:41:00,30.3,28.5,30.25,NE,48,0.0,0.0,93,0.00,CLR,CLR,1.11,WeatherDisplay:10.37,2013-03-10 00:41:00,
2013-03-09 19:47:00,30.1,28.6,30.25,NE,48,0.0,0.0,94,0.00,CLR,CLR,1.11,WeatherDisplay:10.37,2013-03-10 00:47:00,
2013-03-09 19:52:00,30.0,28.5,30.25,NE,48,0.0,0.0,94,0.00,CLR,CLR,1.11,WeatherDisplay:10.37,2013-03-10 00:52:00,
2013-03-09 19:57:00,29.8,28.3,30.25,NE,48,0.0,0.0,94,0.00,CLR,CLR,1.11,WeatherDisplay:10.37,2013-03-10 00:57:00,
2013-03-09 20:03:00,29.7,28.2,30.25,NE,48,0.0,0.0,94,0.00,CLR,CLR,1.11,WeatherDisplay:10.37,2013-03-10 01:03:00,
2013-03-09 20:08:00,29.5,28.0,30.25,NE,48,0.0,0.0,94,0.00,CLR,CLR,1.11,WeatherDisplay:10.37,2013-03-10 01:08:00,
2013-03-09 20:13:00,29.4,28.1,30.26,NE,48,0.0,0.0,95,0.00,CLR,CLR,1.11,WeatherDisplay:10.37,2013-03-10 01:13:00,
2013-03-09 20:18:00,29.3,28.0,30.26,NE,48,0.0,0.0,95,0.00,CLR,CLR,1.11,WeatherDisplay:10.37,2013-03-10 01:18:00,
2013-03-09 20:23:00,29.2,27.9,30.26,NE,48,0.0,0.0,95,0.00,CLR,CLR,1.11,WeatherDisplay:10.37,2013-03-10 01:23:00,
2013-03-09 20:29:00,29.0,27.7,30.26,NE,48,0.0,0.0,95,0.00,CLR,CLR,1.11,WeatherDisplay:10.37,2013-03-10 01:29:00,
2013-03-09 20:34:00,29.0,27.7,30.26,NE,48,0.0,0.0,95,0.00,CLR,CLR,1.11,WeatherDisplay:10.37,2013-03-10 01:34:00,
2013-03-09 20:39:00,28.9,27.6,30.26,NE,48,0.0,0.0,95,0.00,CLR,CLR,1.11,WeatherDisplay:10.37,2013-03-10 01:39:00,
2013-03-09 20:44:00,28.9,27.6,30.26,NE,48,0.0,0.0,95,0.00,CLR,CLR,1.11,WeatherDisplay:10.37,2013-03-10 01:44:00,
2013-03-09 20:50:00,28.8,27.5,30.26,NE,48,0.0,0.0,95,0.00,CLR,CLR,1.11,WeatherDisplay:10.37,2013-03-10 01:50:00,
2013-03-09 20:55:00,28.7,27.4,30.26,NE,48,0.0,0.0,95,0.00,CLR,CLR,1.11,WeatherDisplay:10.37,2013-03-10 01:55:00,
2013-03-09 21:00:00,28.7,27.4,30.26,NE,48,0.0,0.0,95,0.00,OVC,OVC,1.11,WeatherDisplay:10.37,2013-03-10 02:00:00,
2013-03-09 21:05:00,28.7,27.7,30.27,NE,48,0.0,0.0,96,0.00,OVC,OVC,1.11,WeatherDisplay:10.37,2013-03-10 02:05:00,
2013-03-09 21:11:00,28.6,27.4,30.27,NE,48,0.0,0.0,95,0.00,OVC,OVC,1.11,WeatherDisplay:10.37,2013-03-10 02:11:00,
2013-03-09 21:16:00,28.5,27.5,30.27,NE,48,0.0,0.0,96,0.00,OVC,OVC,1.11,WeatherDisplay:10.37,2013-03-10 02:16:00,
2013-03-09 21:21:00,28.5,27.3,30.27,NE,48,0.0,0.0,95,0.00,OVC,OVC,1.11,WeatherDisplay:10.37,2013-03-10 02:21:00,
2013-03-09 21:27:00,28.4,27.4,30.27,NE,48,0.0,0.0,96,0.00,OVC,OVC,1.11,WeatherDisplay:10.37,2013-03-10 02:27:00,
2013-03-09 21:32:00,28.3,27.3,30.27,NE,48,0.0,0.0,96,0.00,OVC,OVC,1.11,WeatherDisplay:10.37,2013-03-10 02:32:00,
2013-03-09 21:37:00,28.3,27.1,30.28,NE,48,0.0,0.0,95,0.00,OVC,OVC,1.11,WeatherDisplay:10.37,2013-03-10 02:37:00,
2013-03-09 21:42:00,28.2,27.2,30.28,NE,48,0.0,0.0,96,0.00,OVC,OVC,1.11,WeatherDisplay:10.37,2013-03-10 02:42:00,
2013-03-09 21:48:00,28.1,27.1,30.28,NE,48,0.0,0.0,96,0.00,OVC,OVC,1.11,WeatherDisplay:10.37,2013-03-10 02:48:00,
2013-03-09 21:53:00,28.0,27.0,30.27,NE,48,0.0,0.0,96,0.00,OVC,OVC,1.11,WeatherDisplay:10.37,2013-03-10 02:53:00,
2013-03-09 21:58:00,27.9,26.9,30.28,NE,48,0.0,0.0,96,0.00,OVC,OVC,1.11,WeatherDisplay:10.37,2013-03-10 02:58:00,
2013-03-09 22:04:00,27.9,26.9,30.27,NE,48,0.0,0.0,96,0.00,OVC,OVC,1.11,WeatherDisplay:10.37,2013-03-10 03:04:00,
2013-03-09 22:09:00,27.8,26.8,30.27,NE,48,0.0,0.0,96,0.00,OVC,OVC,1.11,WeatherDisplay:10.37,2013-03-10 03:09:00,
2013-03-09 22:14:00,27.8,26.8,30.26,NE,48,0.0,0.0,96,0.00,OVC,OVC,1.11,WeatherDisplay:10.37,2013-03-10 03:14:00,
2013-03-09 22:19:00,27.7,26.7,30.26,NE,48,0.0,0.0,96,0.00,OVC,OVC,1.11,WeatherDisplay:10.37,2013-03-10 03:19:00,
2013-03-09 22:24:00,27.6,26.6,30.26,NE,48,0.0,0.0,96,0.00,OVC,OVC,1.11,WeatherDisplay:10.37,2013-03-10 03:24:00,
2013-03-09 22:30:00,27.4,26.4,30.26,NE,48,0.0,0.0,96,0.00,OVC,OVC,1.11,WeatherDisplay:10.37,2013-03-10 03:30:00,
2013-03-09 22:35:00,27.3,26.3,30.26,NE,48,0.0,0.0,96,0.00,OVC,OVC,1.11,WeatherDisplay:10.37,2013-03-10 03:35:00,
2013-03-09 22:40:00,27.2,26.2,30.26,NE,48,0.0,0.0,96,0.00,OVC,OVC,1.11,WeatherDisplay:10.37,2013-03-10 03:40:00,
2013-03-09 22:46:00,27.2,26.2,30.26,NE,48,0.0,0.0,96,0.00,OVC,OVC,1.11,WeatherDisplay:10.37,2013-03-10 03:46:00,
2013-03-09 22:51:00,27.1,26.1,30.26,NE,48,0.0,0.0,96,0.00,OVC,OVC,1.11,WeatherDisplay:10.37,2013-03-10 03:51:00,
2013-03-09 22:56:00,27.0,26.0,30.26,NE,48,0.0,0.0,96,0.00,OVC,OVC,1.11,WeatherDisplay:10.37,2013-03-10 03:56:00,
2013-03-09 23:01:00,27.0,26.0,30.26,NE,48,0.0,0.0,96,0.00,OVC,OVC,1.11,WeatherDisplay:10.37,2013-03-10 04:01:00,
2013-03-09 23:06:00,26.9,25.9,30.26,NE,48,0.0,0.0,96,0.00,OVC,OVC,1.11,WeatherDisplay:10.37,2013-03-10 04:06:00,
2013-03-09 23:11:00,26.8,25.8,30.26,NE,48,0.0,0.0,96,0.00,OVC,OVC,1.11,WeatherDisplay:10.37,2013-03-10 04:11:00,
2013-03-09 23:17:00,26.7,25.7,30.26,NE,48,0.0,0.0,96,0.00,OVC,OVC,1.11,WeatherDisplay:10.37,2013-03-10 04:17:00,
2013-03-09 23:22:00,26.6,25.6,30.27,NE,48,0.0,0.0,96,0.00,OVC,OVC,1.11,WeatherDisplay:10.37,2013-03-10 04:22:00,
2013-03-09 23:27:00,26.5,25.5,30.27,NE,48,0.0,0.0,96,0.00,OVC,OVC,1.11,WeatherDisplay:10.37,2013-03-10 04:27:00,
2013-03-09 23:32:00,26.5,25.5,30.27,NE,48,0.0,0.0,96,0.00,OVC,OVC,1.11,WeatherDisplay:10.37,2013-03-10 04:32:00,
2013-03-09 23:38:00,26.4,25.7,30.27,NE,48,0.0,0.0,97,0.00,OVC,OVC,1.11,WeatherDisplay:10.37,2013-03-10 04:38:00,
2013-03-09 23:43:00,26.3,25.3,30.27,NE,48,0.0,0.0,96,0.00,OVC,OVC,1.11,WeatherDisplay:10.37,2013-03-10 04:43:00,
2013-03-09 23:48:00,26.2,25.2,30.28,NE,48,0.0,0.0,96,0.00,OVC,OVC,1.11,WeatherDisplay:10.37,2013-03-10 04:48:00,
2013-03-09 23:53:00,26.2,25.2,30.28,NE,48,0.0,0.0,96,0.00,OVC,OVC,1.11,WeatherDisplay:10.37,2013-03-10 04:53:00,
2013-03-09 23:59:00,26.1,25.1,30.28,NE,48,0.0,0.0,96,0.00,OVC,OVC,1.11,WeatherDisplay:10.37,2013-03-10 04:59:00,